Time;durP1;ratioP1;P1;durP2;ratioP2;P2;SDS_P1;SDS_P2;PMS_P1;PMS_P2;Temp;Humidity;BMP_temperature;BMP_pressure;BME280_temperature;BME280_humidity;BME280_pressure;Samples;Min_cycle;Max_cycle;Signal;HPM_P1;HPM_P2
2023/07/07 00:02:17;;;;;;;;;;;18.80;72.10;;;;;;5028873;28;20366;-71
2023/07/07 00:04:43;;;;;;;;;;;18.80;72.00;;;;;;5029111;28;20062;-71
2023/07/07 00:07:08;;;;;;;;;;;18.70;72.00;;;;;;5029101;28;20370;-72
2023/07/07 00:09:34;;;;;;;;;;;18.70;72.00;;;;;;5029003;28;19928;-72
2023/07/07 00:12:00;;;;;;;;;;;18.70;72.10;;;;;;5029081;28;20351;-72
2023/07/07 00:14:25;;;;;;;;;;;18.70;72.10;;;;;;5028931;28;20141;-72
2023/07/07 00:16:51;;;;;;;;;;;18.70;72.10;;;;;;5027383;28;19947;-71
2023/07/07 00:19:17;;;;;;;;;;;18.70;72.10;;;;;;5028936;28;19913;-71
2023/07/07 00:21:42;;;;;;;;;;;18.70;72.10;;;;;;5028739;28;19916;-72
2023/07/07 00:24:08;;;;;;;;;;;18.70;72.10;;;;;;5028674;28;19928;-72
2023/07/07 00:26:34;;;;;;;;;;;18.70;72.10;;;;;;5027407;28;19939;-72
2023/07/07 00:29:00;;;;;;;;;;;18.70;72.20;;;;;;5027364;28;19914;-72
2023/07/07 00:31:26;;;;;;;;;;;18.70;72.10;;;;;;5029078;28;19959;-72
2023/07/07 00:33:52;;;;;;;;;;;18.70;72.10;;;;;;5028650;28;19913;-72
2023/07/07 00:36:18;;;;;;;;;;;18.70;72.10;;;;;;5028439;28;19971;-72
2023/07/07 00:38:43;;;;;;;;;;;18.80;72.20;;;;;;5027984;28;19913;-71
2023/07/07 00:41:09;;;;;;;;;;;18.80;72.20;;;;;;5028409;28;20369;-71
2023/07/07 00:43:35;;;;;;;;;;;18.80;72.20;;;;;;5028864;28;19967;-71
2023/07/07 00:46:01;;;;;;;;;;;18.80;72.20;;;;;;5028368;28;19913;-71
2023/07/07 00:48:35;;;;;;;;;;;18.80;72.10;;;;;;5028242;28;19923;-71
2023/07/07 00:51:06;;;;;;;;;;;18.80;72.20;;;;;;5028213;28;19974;-71
2023/07/07 00:53:32;;;;;;;;;;;18.90;72.20;;;;;;5028399;28;19905;-71
2023/07/07 00:56:17;;;;;;;;;;;18.90;72.20;;;;;;5028658;28;19917;-68
2023/07/07 00:58:43;;;;;;;;;;;18.90;72.20;;;;;;5028138;28;20026;-72
2023/07/07 01:01:17;;;;;;;;;;;18.90;72.20;;;;;;5028195;28;20076;-72
2023/07/07 01:03:50;;;;;;;;;;;18.90;72.20;;;;;;5028255;28;20651;-72
2023/07/07 01:06:17;;;;;;;;;;;18.90;72.20;;;;;;5028150;28;19948;-71
2023/07/07 01:08:45;;;;;;;;;;;18.90;72.10;;;;;;5028115;28;19913;-71
2023/07/07 01:11:11;;;;;;;;;;;18.90;72.10;;;;;;5028016;28;20224;-71
2023/07/07 01:13:37;;;;;;;;;;;18.90;72.20;;;;;;5027993;28;19920;-72
2023/07/07 01:16:18;;;;;;;;;;;18.90;72.20;;;;;;5028023;28;19913;-71
2023/07/07 01:18:55;;;;;;;;;;;18.90;72.20;;;;;;5028066;28;19913;-71
2023/07/07 01:21:29;;;;;;;;;;;18.90;72.20;;;;;;5027850;28;19909;-71
2023/07/07 01:24:10;;;;;;;;;;;18.90;72.30;;;;;;5027975;28;19913;-71
2023/07/07 01:26:59;;;;;;;;;;;18.90;72.40;;;;;;5027916;28;19913;-71
2023/07/07 01:29:27;;;;;;;;;;;18.90;72.30;;;;;;5019594;28;19909;-72
2023/07/07 01:31:59;;;;;;;;;;;18.90;72.30;;;;;;5028244;28;19956;-71
2023/07/07 01:34:25;;;;;;;;;;;18.90;72.30;;;;;;5027876;28;20012;-71
2023/07/07 01:36:51;;;;;;;;;;;18.90;72.30;;;;;;5027817;28;19928;-72
2023/07/07 01:39:16;;;;;;;;;;;18.90;72.20;;;;;;5027826;28;19909;-72
2023/07/07 01:41:52;;;;;;;;;;;18.90;72.20;;;;;;5026515;28;19913;-72
2023/07/07 01:44:25;;;;;;;;;;;18.90;72.30;;;;;;5027845;28;19920;-72
2023/07/07 01:47:00;;;;;;;;;;;19.00;72.30;;;;;;5027953;28;19913;-71
2023/07/07 01:49:37;;;;;;;;;;;18.90;72.20;;;;;;5027853;28;19917;-72
2023/07/07 01:52:07;;;;;;;;;;;18.80;72.60;;;;;;5030204;28;19916;-72
2023/07/07 01:54:34;;;;;;;;;;;18.80;72.20;;;;;;5031498;28;20396;-72
2023/07/07 01:57:01;;;;;;;;;;;18.80;72.20;;;;;;5031492;28;20507;-72
2023/07/07 01:59:26;;;;;;;;;;;18.80;72.20;;;;;;5031676;28;20000;-72
2023/07/07 02:01:52;;;;;;;;;;;18.80;72.20;;;;;;5030059;28;20043;-72
2023/07/07 02:04:18;;;;;;;;;;;18.70;72.20;;;;;;5031507;28;20260;-71
2023/07/07 02:06:43;;;;;;;;;;;18.70;72.20;;;;;;5031301;28;19913;-72
2023/07/07 02:09:09;;;;;;;;;;;18.70;72.30;;;;;;5031270;28;19920;-71
2023/07/07 02:11:34;;;;;;;;;;;18.70;72.30;;;;;;5031308;28;20369;-71
2023/07/07 02:14:00;;;;;;;;;;;18.60;72.30;;;;;;5031281;28;19998;-71
2023/07/07 02:16:26;;;;;;;;;;;18.60;72.20;;;;;;5031007;28;20236;-71
2023/07/07 02:18:52;;;;;;;;;;;18.60;72.20;;;;;;5031148;28;19914;-71
2023/07/07 02:21:18;;;;;;;;;;;18.50;72.20;;;;;;5031017;28;20423;-71
2023/07/07 02:23:44;;;;;;;;;;;18.50;72.30;;;;;;5031038;28;19917;-71
2023/07/07 02:26:10;;;;;;;;;;;18.50;72.30;;;;;;5031088;28;19909;-71
2023/07/07 02:28:36;;;;;;;;;;;18.50;72.30;;;;;;5030820;28;19948;-71
2023/07/07 02:31:01;;;;;;;;;;;18.50;72.40;;;;;;5030956;28;19967;-72
2023/07/07 02:33:31;;;;;;;;;;;18.60;72.50;;;;;;5030844;28;19932;-71
2023/07/07 02:36:00;;;;;;;;;;;18.60;72.50;;;;;;5030829;28;19957;-71
2023/07/07 02:38:26;;;;;;;;;;;18.60;72.60;;;;;;5030656;28;20024;-71
2023/07/07 02:40:52;;;;;;;;;;;18.60;72.50;;;;;;5030744;28;20017;-71
2023/07/07 02:43:17;;;;;;;;;;;18.60;72.50;;;;;;5030621;28;20019;-72
2023/07/07 02:45:43;;;;;;;;;;;18.70;72.50;;;;;;5030690;28;19979;-71
2023/07/07 02:48:09;;;;;;;;;;;18.70;72.50;;;;;;5030530;28;19913;-71
2023/07/07 02:50:34;;;;;;;;;;;18.70;72.40;;;;;;5030543;28;20050;-71
2023/07/07 02:53:00;;;;;;;;;;;18.70;72.40;;;;;;5030525;28;19921;-71
2023/07/07 02:55:25;;;;;;;;;;;18.70;72.40;;;;;;5030505;28;19913;-71
2023/07/07 02:57:51;;;;;;;;;;;18.70;72.40;;;;;;5030363;28;20004;-71
2023/07/07 03:00:17;;;;;;;;;;;18.60;72.40;;;;;;5029099;28;20426;-72
2023/07/07 03:02:43;;;;;;;;;;;18.60;72.50;;;;;;5029800;28;20470;-72
2023/07/07 03:05:08;;;;;;;;;;;18.50;72.50;;;;;;5030441;28;19909;-72
2023/07/07 03:07:34;;;;;;;;;;;18.50;72.50;;;;;;5030367;28;20289;-71
2023/07/07 03:09:59;;;;;;;;;;;18.50;72.60;;;;;;5030139;28;19925;-71
2023/07/07 03:12:25;;;;;;;;;;;18.40;72.60;;;;;;5029980;28;19996;-71
2023/07/07 03:14:57;;;;;;;;;;;18.40;72.60;;;;;;5030046;28;20369;-71
2023/07/07 03:17:22;;;;;;;;;;;18.40;72.70;;;;;;5030008;28;19927;-72
2023/07/07 03:19:48;;;;;;;;;;;18.40;72.70;;;;;;5029955;28;20431;-72
2023/07/07 03:22:14;;;;;;;;;;;18.40;72.70;;;;;;5030008;28;20511;-72
2023/07/07 03:24:39;;;;;;;;;;;18.50;73.20;;;;;;5029894;28;19909;-71
2023/07/07 03:27:05;;;;;;;;;;;18.50;72.70;;;;;;5029793;28;19913;-71
2023/07/07 03:29:31;;;;;;;;;;;18.50;72.70;;;;;;5029810;28;19959;-71
2023/07/07 03:31:56;;;;;;;;;;;18.50;72.70;;;;;;5029790;28;20327;-71
2023/07/07 03:34:22;;;;;;;;;;;18.50;72.70;;;;;;5029808;28;19913;-71
2023/07/07 03:36:48;;;;;;;;;;;18.50;72.70;;;;;;5029713;28;19917;-72
2023/07/07 03:39:14;;;;;;;;;;;18.50;72.70;;;;;;5029732;28;20012;-71
2023/07/07 03:41:40;;;;;;;;;;;18.40;72.60;;;;;;5029496;28;19913;-72
2023/07/07 03:44:05;;;;;;;;;;;18.40;72.60;;;;;;5029537;28;19916;-72
2023/07/07 03:46:31;;;;;;;;;;;18.40;72.70;;;;;;5029352;28;19913;-71
2023/07/07 03:48:57;;;;;;;;;;;18.40;72.70;;;;;;5029415;28;19909;-72
2023/07/07 03:51:24;;;;;;;;;;;18.40;72.80;;;;;;5029172;28;19913;-72
2023/07/07 03:53:50;;;;;;;;;;;18.30;72.60;;;;;;5029251;28;19947;-72
2023/07/07 03:56:16;;;;;;;;;;;18.30;72.60;;;;;;5029204;28;19909;-71
2023/07/07 03:58:42;;;;;;;;;;;18.20;72.60;;;;;;5029243;28;19909;-71
2023/07/07 04:01:15;;;;;;;;;;;18.20;72.70;;;;;;5028829;28;20016;-71
2023/07/07 04:03:42;;;;;;;;;;;18.20;72.70;;;;;;5029216;28;19921;-71
2023/07/07 04:06:08;;;;;;;;;;;18.20;72.70;;;;;;5028858;28;19917;-71
2023/07/07 04:08:33;;;;;;;;;;;18.20;72.70;;;;;;5027645;28;19940;-71
2023/07/07 04:11:05;;;;;;;;;;;18.20;72.70;;;;;;5028309;28;20123;-71
2023/07/07 04:13:32;;;;;;;;;;;18.20;72.80;;;;;;5028156;28;19917;-71
2023/07/07 04:16:01;;;;;;;;;;;18.20;72.80;;;;;;5028911;28;19910;-71
2023/07/07 04:18:27;;;;;;;;;;;18.20;72.80;;;;;;5028738;28;20453;-71
2023/07/07 04:20:53;;;;;;;;;;;18.20;72.80;;;;;;5028866;28;19992;-71
2023/07/07 04:23:18;;;;;;;;;;;18.20;72.80;;;;;;5028637;28;19913;-72
2023/07/07 04:25:45;;;;;;;;;;;18.20;72.90;;;;;;5028663;28;19971;-72
2023/07/07 04:28:10;;;;;;;;;;;18.20;72.80;;;;;;5028633;28;19921;-71
2023/07/07 04:30:36;;;;;;;;;;;18.20;72.60;;;;;;5028778;28;19923;-71
2023/07/07 04:33:02;;;;;;;;;;;18.20;72.60;;;;;;5028747;28;20002;-71
2023/07/07 04:35:28;;;;;;;;;;;18.20;72.70;;;;;;5028543;28;19910;-71
2023/07/07 04:37:53;;;;;;;;;;;18.10;72.70;;;;;;5028641;28;19939;-71
2023/07/07 04:40:19;;;;;;;;;;;18.20;72.70;;;;;;5027467;28;19959;-71
2023/07/07 04:42:44;;;;;;;;;;;18.20;72.70;;;;;;5028447;28;19914;-71
2023/07/07 04:45:10;;;;;;;;;;;18.20;72.70;;;;;;5028438;28;19913;-71
2023/07/07 04:47:35;;;;;;;;;;;18.20;72.70;;;;;;5027874;28;20423;-72
2023/07/07 04:50:01;;;;;;;;;;;18.30;72.80;;;;;;5028348;28;19920;-72
2023/07/07 04:52:26;;;;;;;;;;;18.40;72.80;;;;;;5028095;28;19928;-71
2023/07/07 04:54:52;;;;;;;;;;;18.40;72.80;;;;;;5028131;28;19913;-72
2023/07/07 04:57:18;;;;;;;;;;;18.40;72.80;;;;;;5028155;28;19921;-71
2023/07/07 04:59:43;;;;;;;;;;;18.50;72.80;;;;;;5028150;28;19920;-71
2023/07/07 05:02:09;;;;;;;;;;;18.50;72.70;;;;;;5026473;28;19921;-71
2023/07/07 05:04:34;;;;;;;;;;;18.60;72.80;;;;;;5027957;28;19975;-72
2023/07/07 05:07:00;;;;;;;;;;;18.60;72.80;;;;;;5028082;28;20004;-71
2023/07/07 05:09:25;;;;;;;;;;;18.60;72.70;;;;;;5028249;28;20220;-71
2023/07/07 05:11:51;;;;;;;;;;;18.60;72.70;;;;;;5028058;28;19949;-71
2023/07/07 05:14:17;;;;;;;;;;;18.60;72.80;;;;;;5026733;28;19967;-71
2023/07/07 05:16:42;;;;;;;;;;;18.70;72.80;;;;;;5027544;28;19936;-71
2023/07/07 05:19:08;;;;;;;;;;;18.80;72.90;;;;;;5027724;28;20015;-71
2023/07/07 05:21:33;;;;;;;;;;;18.90;72.80;;;;;;5027753;28;19910;-71
2023/07/07 05:23:59;;;;;;;;;;;19.00;72.70;;;;;;5027952;28;19924;-71
2023/07/07 05:26:28;;;;;;;;;;;19.00;72.60;;;;;;5031599;28;19967;-71
2023/07/07 05:28:56;;;;;;;;;;;19.10;72.70;;;;;;5030436;28;20336;-71
2023/07/07 05:31:21;;;;;;;;;;;19.20;72.80;;;;;;5031354;28;19913;-70
2023/07/07 05:33:47;;;;;;;;;;;19.20;72.70;;;;;;5030541;28;19924;-70
2023/07/07 05:36:12;;;;;;;;;;;19.30;72.70;;;;;;5031923;28;19921;-70
2023/07/07 05:38:40;;;;;;;;;;;19.40;72.70;;;;;;5031723;28;19924;-70
2023/07/07 05:41:06;;;;;;;;;;;19.50;72.70;;;;;;5030164;28;20377;-70
2023/07/07 05:43:31;;;;;;;;;;;19.70;72.70;;;;;;5031442;28;20015;-70
2023/07/07 05:45:58;;;;;;;;;;;19.70;72.50;;;;;;5031500;28;19909;-70
2023/07/07 05:48:24;;;;;;;;;;;19.80;72.50;;;;;;5030320;28;20401;-70
2023/07/07 05:50:50;;;;;;;;;;;20.00;72.50;;;;;;5031300;28;19961;-70
2023/07/07 05:53:16;;;;;;;;;;;20.00;72.40;;;;;;5030055;28;20294;-70
2023/07/07 05:55:46;;;;;;;;;;;20.10;72.30;;;;;;5031219;28;19913;-70
2023/07/07 05:58:12;;;;;;;;;;;20.00;72.30;;;;;;5031056;28;19938;-71
2023/07/07 06:00:38;;;;;;;;;;;20.00;72.40;;;;;;5030718;28;19913;-71
2023/07/07 06:03:03;;;;;;;;;;;19.90;72.50;;;;;;5031313;28;19964;-71
2023/07/07 06:05:29;;;;;;;;;;;19.80;72.60;;;;;;5031095;28;19913;-71
2023/07/07 06:07:55;;;;;;;;;;;19.80;72.70;;;;;;5030936;28;20336;-71
2023/07/07 06:10:24;;;;;;;;;;;19.80;72.70;;;;;;5031323;28;19909;-70
2023/07/07 06:12:50;;;;;;;;;;;19.70;72.70;;;;;;5030960;28;20385;-71
2023/07/07 06:15:16;;;;;;;;;;;19.70;72.80;;;;;;5030948;28;19913;-71
2023/07/07 06:17:41;;;;;;;;;;;19.70;72.90;;;;;;5031005;28;19964;-70
2023/07/07 06:20:07;;;;;;;;;;;19.70;72.90;;;;;;5029526;28;20333;-70
2023/07/07 06:22:33;;;;;;;;;;;19.70;72.90;;;;;;5030851;28;19960;-71
2023/07/07 06:25:00;;;;;;;;;;;19.70;72.90;;;;;;5030766;28;19920;-70
2023/07/07 06:27:26;;;;;;;;;;;19.70;73.00;;;;;;5030710;28;19909;-70
2023/07/07 06:29:51;;;;;;;;;;;19.80;73.00;;;;;;5030673;28;20401;-70
2023/07/07 06:32:17;;;;;;;;;;;19.90;72.90;;;;;;5030454;28;20502;-70
2023/07/07 06:34:43;;;;;;;;;;;19.90;72.70;;;;;;5030470;28;20180;-71
2023/07/07 06:37:08;;;;;;;;;;;19.90;72.80;;;;;;5028340;28;19917;-70
2023/07/07 06:39:34;;;;;;;;;;;19.90;72.90;;;;;;5030811;28;19913;-71
2023/07/07 06:42:00;;;;;;;;;;;20.00;72.90;;;;;;5030795;28;20373;-71
2023/07/07 06:44:25;;;;;;;;;;;20.00;72.80;;;;;;5029183;28;19919;-71
2023/07/07 06:46:51;;;;;;;;;;;19.90;73.30;;;;;;5031135;28;19913;-71
2023/07/07 06:49:17;;;;;;;;;;;19.90;72.90;;;;;;5030381;28;19922;-71
2023/07/07 06:51:42;;;;;;;;;;;20.00;73.10;;;;;;5030385;28;19964;-71
2023/07/07 06:54:08;;;;;;;;;;;20.20;73.20;;;;;;5030277;28;20002;-71
2023/07/07 06:56:33;;;;;;;;;;;20.50;73.00;;;;;;5028588;28;19913;-71
2023/07/07 06:58:59;;;;;;;;;;;20.80;72.60;;;;;;5029849;28;19933;-71
2023/07/07 07:01:24;;;;;;;;;;;21.00;72.50;;;;;;5029661;28;20010;-71
2023/07/07 07:03:50;;;;;;;;;;;21.30;72.40;;;;;;5029884;28;20366;-71
2023/07/07 07:06:16;;;;;;;;;;;21.80;72.40;;;;;;5028510;28;19913;-71
2023/07/07 07:08:41;;;;;;;;;;;22.30;71.70;;;;;;5030029;28;19948;-71
2023/07/07 07:11:07;;;;;;;;;;;22.60;71.60;;;;;;5029090;28;20364;-71
2023/07/07 07:13:33;;;;;;;;;;;23.00;71.30;;;;;;5030136;28;19913;-71
2023/07/07 07:15:58;;;;;;;;;;;23.60;71.30;;;;;;5012249;28;19959;-72
2023/07/07 07:18:24;;;;;;;;;;;24.00;70.50;;;;;;5029301;28;19917;-71
2023/07/07 07:20:50;;;;;;;;;;;24.00;70.20;;;;;;5029600;28;19959;-71
2023/07/07 07:23:16;;;;;;;;;;;23.80;70.60;;;;;;5029399;28;19936;-71
2023/07/07 07:25:42;;;;;;;;;;;23.70;70.40;;;;;;5029416;28;20366;-71
2023/07/07 07:28:08;;;;;;;;;;;23.30;70.90;;;;;;5029251;28;19939;-71
2023/07/07 07:30:34;;;;;;;;;;;23.00;71.20;;;;;;5029148;28;19909;-71
2023/07/07 07:33:03;;;;;;;;;;;22.70;71.40;;;;;;5028884;28;19923;-71
2023/07/07 07:35:29;;;;;;;;;;;22.60;71.90;;;;;;5029149;28;20392;-71
2023/07/07 07:37:54;;;;;;;;;;;22.60;72.00;;;;;;5027669;28;19917;-71
2023/07/07 07:40:23;;;;;;;;;;;22.70;72.30;;;;;;5028997;28;19924;-71
2023/07/07 07:42:48;;;;;;;;;;;23.00;71.90;;;;;;5028853;28;19920;-71
2023/07/07 07:45:16;;;;;;;;;;;22.90;71.60;;;;;;5011312;28;19913;-71
2023/07/07 07:47:42;;;;;;;;;;;22.70;71.60;;;;;;5029052;28;19909;-71
2023/07/07 07:50:07;;;;;;;;;;;22.60;72.10;;;;;;5028911;28;19924;-71
2023/07/07 07:52:33;;;;;;;;;;;22.50;72.20;;;;;;5028417;28;19932;-71
2023/07/07 07:54:59;;;;;;;;;;;22.50;72.30;;;;;;5027141;28;19967;-71
2023/07/07 07:57:24;;;;;;;;;;;22.40;72.70;;;;;;5028323;28;19917;-71
2023/07/07 07:59:50;;;;;;;;;;;22.30;72.30;;;;;;5026624;28;19923;-71
2023/07/07 08:02:15;;;;;;;;;;;22.40;72.80;;;;;;5028109;28;19955;-71
2023/07/07 08:04:41;;;;;;;;;;;23.20;73.40;;;;;;5028252;28;20004;-71
2023/07/07 08:07:06;;;;;;;;;;;24.20;72.70;;;;;;5028109;28;19982;-71
2023/07/07 08:09:32;;;;;;;;;;;25.10;71.90;;;;;;5028431;28;19967;-71
2023/07/07 08:11:59;;;;;;;;;;;25.70;71.60;;;;;;5028289;28;19913;-72
2023/07/07 08:14:30;;;;;;;;;;;26.20;71.30;;;;;;5028239;28;19917;-72
2023/07/07 08:16:57;;;;;;;;;;;26.80;71.40;;;;;;5028443;28;19952;-71
2023/07/07 08:19:22;;;;;;;;;;;27.40;71.40;;;;;;5028026;28;20374;-71
2023/07/07 08:21:48;;;;;;;;;;;27.80;70.90;;;;;;5027971;28;19913;-71
2023/07/07 08:24:14;;;;;;;;;;;27.90;70.70;;;;;;5027981;28;19971;-71
2023/07/07 08:26:40;;;;;;;;;;;28.00;70.90;;;;;;5027743;28;19924;-71
2023/07/07 08:29:06;;;;;;;;;;;28.30;71.30;;;;;;5027761;28;19994;-71
2023/07/07 08:31:32;;;;;;;;;;;28.60;71.30;;;;;;5027754;28;19920;-71
2023/07/07 08:33:58;;;;;;;;;;;28.80;71.30;;;;;;5027546;28;19909;-71
2023/07/07 08:36:23;;;;;;;;;;;29.00;71.60;;;;;;5026959;28;19917;-71
2023/07/07 08:38:49;;;;;;;;;;;29.20;70.90;;;;;;5025725;28;19932;-71
2023/07/07 08:41:14;;;;;;;;;;;29.00;71.20;;;;;;5037334;28;19917;-71
2023/07/07 08:43:41;;;;;;;;;;;29.20;71.50;;;;;;5038200;28;20317;-71
2023/07/07 08:46:20;;;;;;;;;;;29.50;71.70;;;;;;5037697;28;19962;-71
2023/07/07 08:48:46;;;;;;;;;;;29.70;71.60;;;;;;5038508;28;19931;-71
2023/07/07 08:51:16;;;;;;;;;;;30.20;71.60;;;;;;5035424;28;19916;-71
2023/07/07 08:53:42;;;;;;;;;;;30.60;71.90;;;;;;5039487;28;20356;-71
2023/07/07 08:56:10;;;;;;;;;;;30.90;71.60;;;;;;5036798;28;19944;-71
2023/07/07 08:58:59;;;;;;;;;;;31.10;71.80;;;;;;5036710;28;19913;-71
2023/07/07 09:01:43;;;;;;;;;;;30.70;70.90;;;;;;5039060;28;19928;-71
2023/07/07 09:04:09;;;;;;;;;;;29.60;70.40;;;;;;5038785;28;19923;-71
2023/07/07 09:06:34;;;;;;;;;;;28.40;71.30;;;;;;5036660;28;19908;-70
2023/07/07 09:09:06;;;;;;;;;;;27.70;71.90;;;;;;5039043;28;19936;-71
2023/07/07 09:11:32;;;;;;;;;;;27.50;73.30;;;;;;5034578;28;20059;-71
2023/07/07 09:13:58;;;;;;;;;;;27.90;73.90;;;;;;5035311;28;20540;-71
2023/07/07 09:16:27;;;;;;;;;;;28.70;74.40;;;;;;5039723;28;20426;-71
2023/07/07 09:19:04;;;;;;;;;;;29.50;73.80;;;;;;5047283;28;19909;-71
2023/07/07 09:21:40;;;;;;;;;;;30.00;73.00;;;;;;5039106;28;19917;-71
2023/07/07 09:24:11;;;;;;;;;;;29.80;71.90;;;;;;5028001;28;19916;-71
2023/07/07 09:26:37;;;;;;;;;;;29.10;71.50;;;;;;5028238;28;20012;-71
2023/07/07 09:29:06;;;;;;;;;;;28.80;72.80;;;;;;5028176;28;19916;-71
2023/07/07 09:31:37;;;;;;;;;;;29.30;73.60;;;;;;5028235;28;19936;-71
2023/07/07 09:34:03;;;;;;;;;;;30.00;74.00;;;;;;5027633;28;20667;-71
2023/07/07 09:36:37;;;;;;;;;;;30.80;73.80;;;;;;5027469;28;20008;-71
2023/07/07 09:39:03;;;;;;;;;;;31.30;73.20;;;;;;5042880;28;19920;-71
2023/07/07 09:41:37;;;;;;;;;;;31.10;72.20;;;;;;5047424;28;19996;-71
2023/07/07 09:44:14;;;;;;;;;;;31.10;72.50;;;;;;5047798;28;19915;-71
2023/07/07 09:47:06;;;;;;;;;;;31.00;72.30;;;;;;5047606;28;19920;-71
2023/07/07 09:49:49;;;;;;;;;;;30.70;72.00;;;;;;5044242;28;19935;-71
2023/07/07 09:52:21;;;;;;;;;;;29.90;72.20;;;;;;5046752;28;20419;-71
2023/07/07 09:54:47;;;;;;;;;;;29.30;72.50;;;;;;5047736;28;19909;-71
2023/07/07 09:57:25;;;;;;;;;;;29.00;72.80;;;;;;5047254;28;20292;-71
2023/07/07 09:59:53;;;;;;;;;;;28.80;73.10;;;;;;5047290;28;19908;-71
2023/07/07 10:02:21;;;;;;;;;;;28.60;73.40;;;;;;5047456;28;19970;-71
2023/07/07 10:04:50;;;;;;;;;;;28.50;73.30;;;;;;5048019;28;19915;-71
2023/07/07 10:07:17;;;;;;;;;;;28.20;73.10;;;;;;5047661;28;19971;-71
2023/07/07 10:09:43;;;;;;;;;;;28.20;73.70;;;;;;5048071;28;19909;-71
2023/07/07 10:12:15;;;;;;;;;;;28.20;73.50;;;;;;5048648;28;19908;-75
2023/07/07 10:14:41;;;;;;;;;;;28.20;73.20;;;;;;5051461;28;20011;-70
2023/07/07 10:17:10;;;;;;;;;;;27.90;73.00;;;;;;5049926;28;20211;-71
2023/07/07 10:19:42;;;;;;;;;;;27.80;73.70;;;;;;5050908;28;19917;-71
2023/07/07 10:22:12;;;;;;;;;;;28.10;73.90;;;;;;5050799;28;19912;-71
2023/07/07 10:24:37;;;;;;;;;;;28.40;73.80;;;;;;5050889;28;19909;-71
2023/07/07 10:27:03;;;;;;;;;;;28.40;72.70;;;;;;5050387;28;20277;-70
2023/07/07 10:29:33;;;;;;;;;;;27.90;72.40;;;;;;5050679;28;19981;-71
2023/07/07 10:31:59;;;;;;;;;;;27.40;72.70;;;;;;5050715;28;19916;-71
2023/07/07 10:34:36;;;;;;;;;;;27.10;72.90;;;;;;5050504;28;19908;-70
2023/07/07 10:37:01;;;;;;;;;;;26.80;73.30;;;;;;5050324;28;19912;-71
2023/07/07 10:39:29;;;;;;;;;;;26.90;73.80;;;;;;5050181;28;20050;-71
2023/07/07 10:41:55;;;;;;;;;;;26.90;73.70;;;;;;5050074;28;19954;-71
2023/07/07 10:44:24;;;;;;;;;;;27.50;74.30;;;;;;5050570;28;19999;-71
2023/07/07 10:46:50;;;;;;;;;;;28.20;74.20;;;;;;5050227;28;20014;-71
2023/07/07 10:49:16;;;;;;;;;;;28.60;73.70;;;;;;5050257;28;20372;-71
2023/07/07 10:51:47;;;;;;;;;;;28.90;73.60;;;;;;5049828;28;19908;-71
2023/07/07 10:54:13;;;;;;;;;;;28.90;73.30;;;;;;5048842;28;20257;-71
2023/07/07 10:56:43;;;;;;;;;;;28.50;72.40;;;;;;5050062;28;19915;-71
2023/07/07 10:59:18;;;;;;;;;;;27.90;72.30;;;;;;5050250;28;19909;-71
2023/07/07 11:01:53;;;;;;;;;;;27.30;72.40;;;;;;5049477;28;19920;-71
2023/07/07 11:04:22;;;;;;;;;;;27.00;72.70;;;;;;5049222;28;20426;-77
2023/07/07 11:06:51;;;;;;;;;;;27.00;73.10;;;;;;5050739;28;19919;-76
2023/07/07 11:09:23;;;;;;;;;;;26.90;72.90;;;;;;5050515;28;19909;-76
2023/07/07 11:12:05;;;;;;;;;;;26.70;72.70;;;;;;5049661;28;19909;-76
2023/07/07 11:14:48;;;;;;;;;;;26.60;72.70;;;;;;5050291;28;20269;-76
2023/07/07 11:17:23;;;;;;;;;;;26.60;73.00;;;;;;5050129;28;19920;-77
2023/07/07 11:19:55;;;;;;;;;;;26.80;73.60;;;;;;5050131;28;19916;-76
2023/07/07 11:22:26;;;;;;;;;;;27.00;73.30;;;;;;5049855;28;19940;-76
2023/07/07 11:24:52;;;;;;;;;;;27.20;73.60;;;;;;5050043;28;20005;-77
2023/07/07 11:27:36;;;;;;;;;;;27.30;73.30;;;;;;5049519;28;20007;-76
2023/07/07 11:30:13;;;;;;;;;;;27.60;73.50;;;;;;5049042;28;19974;-77
2023/07/07 11:32:45;;;;;;;;;;;27.80;73.00;;;;;;5049469;28;19992;-77
2023/07/07 11:35:10;;;;;;;;;;;27.90;72.70;;;;;;5049674;28;19958;-77
2023/07/07 11:37:42;;;;;;;;;;;27.90;72.80;;;;;;5049817;28;19913;-76
2023/07/07 11:40:07;;;;;;;;;;;27.80;73.00;;;;;;5049659;28;19919;-77
2023/07/07 11:42:33;;;;;;;;;;;27.70;72.50;;;;;;5047833;28;19909;-76
2023/07/07 11:44:59;;;;;;;;;;;27.30;72.20;;;;;;5049908;28;20003;-76
2023/07/07 11:47:38;;;;;;;;;;;27.00;72.40;;;;;;5049531;28;19909;-77
2023/07/07 11:50:19;;;;;;;;;;;26.80;72.40;;;;;;5049186;28;19960;-76
2023/07/07 11:52:53;;;;;;;;;;;26.40;72.50;;;;;;5049466;28;20365;-76
2023/07/07 11:55:37;;;;;;;;;;;26.20;72.70;;;;;;5049774;28;19915;-77
2023/07/07 11:58:03;;;;;;;;;;;26.10;72.80;;;;;;5049471;28;19966;-77
2023/07/07 12:01:04;;;;;;;;;;;25.90;72.80;;;;;;5049525;28;19917;-76
2023/07/07 12:03:41;;;;;;;;;;;25.70;73.00;;;;;;4988073;28;20402;-77
2023/07/07 12:06:17;;;;;;;;;;;25.60;73.20;;;;;;5038659;28;20020;-77
2023/07/07 12:08:46;;;;;;;;;;;25.60;73.20;;;;;;5049762;28;19909;-73
2023/07/07 12:11:14;;;;;;;;;;;25.70;73.20;;;;;;5047912;28;19992;-75
2023/07/07 12:13:56;;;;;;;;;;;25.80;73.00;;;;;;5049161;28;20373;-75
2023/07/07 12:16:23;;;;;;;;;;;25.90;72.90;;;;;;5049127;28;19909;-76
2023/07/07 12:18:54;;;;;;;;;;;25.90;72.70;;;;;;5047341;28;19925;-75
2023/07/07 12:21:28;;;;;;;;;;;25.90;72.90;;;;;;5048987;28;19913;-76
2023/07/07 12:24:19;;;;;;;;;;;25.90;72.90;;;;;;5048564;28;19935;-76
2023/07/07 12:26:48;;;;;;;;;;;25.80;72.80;;;;;;5048570;28;19966;-75
2023/07/07 12:29:15;;;;;;;;;;;25.90;73.00;;;;;;5048794;28;20264;-76
2023/07/07 12:31:41;;;;;;;;;;;25.90;72.60;;;;;;5047075;28;19917;-76
2023/07/07 12:34:26;;;;;;;;;;;25.70;72.40;;;;;;5047930;28;20015;-76
2023/07/07 12:36:54;;;;;;;;;;;25.50;72.40;;;;;;5048280;28;20007;-76
2023/07/07 12:39:19;;;;;;;;;;;25.20;72.40;;;;;;5048406;28;20014;-77
2023/07/07 12:41:45;;;;;;;;;;;25.00;72.50;;;;;;5048333;28;20369;-77
2023/07/07 12:44:11;;;;;;;;;;;24.90;72.90;;;;;;5048884;28;20266;-77
2023/07/07 12:46:37;;;;;;;;;;;25.00;73.20;;;;;;5048545;28;19909;-77
2023/07/07 12:49:05;;;;;;;;;;;25.20;73.40;;;;;;5048432;28;19920;-78
2023/07/07 12:51:32;;;;;;;;;;;25.60;73.40;;;;;;5048682;28;19916;-78
2023/07/07 12:53:58;;;;;;;;;;;25.70;72.90;;;;;;5049052;28;19909;-77
2023/07/07 12:56:25;;;;;;;;;;;25.80;73.70;;;;;;5049012;28;20269;-77
2023/07/07 12:58:55;;;;;;;;;;;26.00;73.00;;;;;;5048793;28;19920;-77
2023/07/07 13:01:40;;;;;;;;;;;26.00;72.90;;;;;;5048564;28;19920;-76
2023/07/07 13:04:08;;;;;;;;;;;26.20;73.10;;;;;;5048311;28;20007;-76
2023/07/07 13:06:34;;;;;;;;;;;26.40;73.20;;;;;;5048652;28;20339;-76
2023/07/07 13:09:21;;;;;;;;;;;26.50;72.40;;;;;;5040985;28;19917;-69
2023/07/07 13:11:48;;;;;;;;;;;26.40;72.20;;;;;;5028712;28;20342;-76
2023/07/07 13:14:32;;;;;;;;;;;26.30;72.40;;;;;;5034252;28;19938;-76
2023/07/07 13:17:00;;;;;;;;;;;26.30;72.80;;;;;;5047026;28;19913;-76
2023/07/07 13:19:25;;;;;;;;;;;26.50;73.00;;;;;;5048022;28;19909;-76
2023/07/07 13:21:53;;;;;;;;;;;26.60;72.90;;;;;;5047892;28;20335;-76
2023/07/07 13:24:20;;;;;;;;;;;26.60;72.50;;;;;;5048377;28;19908;-76
2023/07/07 13:26:45;;;;;;;;;;;26.50;72.60;;;;;;5028311;28;19995;-75
2023/07/07 13:29:11;;;;;;;;;;;26.30;72.50;;;;;;5028388;28;20333;-76
2023/07/07 13:31:41;;;;;;;;;;;26.20;72.60;;;;;;5027454;28;19916;-77
2023/07/07 13:34:17;;;;;;;;;;;26.10;72.60;;;;;;5028452;28;19909;-75
2023/07/07 13:36:43;;;;;;;;;;;25.90;72.60;;;;;;5033682;28;20278;-76
2023/07/07 13:39:10;;;;;;;;;;;25.90;72.60;;;;;;5035799;28;20050;-76
2023/07/07 13:41:35;;;;;;;;;;;25.90;72.70;;;;;;5035288;28;19920;-75
2023/07/07 13:44:01;;;;;;;;;;;25.80;72.50;;;;;;5038890;28;19916;-76
2023/07/07 13:46:30;;;;;;;;;;;25.70;72.60;;;;;;5038834;28;19988;-76
2023/07/07 13:48:57;;;;;;;;;;;25.60;72.50;;;;;;5043282;28;20011;-76
2023/07/07 13:51:28;;;;;;;;;;;25.50;72.50;;;;;;5040810;28;20424;-75
2023/07/07 13:53:57;;;;;;;;;;;25.40;72.60;;;;;;5040609;28;19924;-75
2023/07/07 13:56:22;;;;;;;;;;;25.40;72.80;;;;;;5043296;28;20020;-76
2023/07/07 13:58:49;;;;;;;;;;;25.40;72.60;;;;;;5040734;28;20048;-76
2023/07/07 14:01:25;;;;;;;;;;;25.40;72.90;;;;;;5041608;28;19920;-75
2023/07/07 14:03:54;;;;;;;;;;;25.10;72.20;;;;;;5041328;28;19982;-76
2023/07/07 14:06:21;;;;;;;;;;;24.90;72.40;;;;;;5038345;28;20339;-77
2023/07/07 14:08:46;;;;;;;;;;;24.80;72.70;;;;;;5047202;28;19916;-77
2023/07/07 14:11:17;;;;;;;;;;;24.90;73.10;;;;;;5051253;28;20442;-76
2023/07/07 14:13:43;;;;;;;;;;;25.00;72.90;;;;;;5051370;28;19909;-76
2023/07/07 14:16:14;;;;;;;;;;;25.10;72.80;;;;;;5049818;28;20011;-77
2023/07/07 14:18:42;;;;;;;;;;;25.10;72.70;;;;;;5051452;28;19921;-77
2023/07/07 14:21:11;;;;;;;;;;;25.10;72.60;;;;;;5050853;28;19958;-77
2023/07/07 14:23:38;;;;;;;;;;;25.20;72.70;;;;;;5051593;28;20380;-76